CheckWX is a tool to help pilots better visualize weather data.  It is not intended as a substitute for an official pre-flight weather briefing.

09:21:56 UTC

PADE METAR
Deering Airport
Deering, Alaska, USA
Current

29 mins ago

PADE 060853Z AUTO 26029KT 1/4SM -SN FZFG VV006 M14/M16 A2953 RMK AO2 PK WND 27040/0822 SLP999 P0000 60000 T11441156 400171144 53056 TSNO $
Observed
Apr-6 @ 08:53 UTC
Wind
  • 260° at 29 KTS
Visibility
Flight Rules
LIFR
Conditions
Light Snow, Freezing Fog
Cloud Levels
  • Vertical visibility
Dewpoint
-16°C / 3°F
Humidity
85%
Altimeter
29.53" Hg
Pressure
1000.02 hPa
Current Rain
0.01"
Previous

1 hour ago

PADE 060810Z AUTO 26033G37KT 1/4SM SN FZFG VV005 M14/M15 A2948 RMK AO2 PK WND 27037/0809 P0000 T11391150 TSNO $
Observed
Apr-6 @ 08:10 UTC
Wind
  • 260° at 33 KTS
  • Gusting to 37 KTS
Visibility
Flight Rules
LIFR
Conditions
Snow, Freezing Fog
Cloud Levels
  • Vertical visibility
Temperature
-14°C / 7°F
Dewpoint
-15°C / 5°F
Humidity
92%
Altimeter
29.48" Hg
Pressure
998.32 hPa
Current Rain
0.01"
Previous

1 hour ago

PADE 060753Z AUTO 26030G38KT 1/4SM SN FZFG VV004 M14/M14 A2947 RMK AO2 PK WND 26039/0654 SLP981 P0000 T11391139 TSNO $
Observed
Apr-6 @ 07:53 UTC
Wind
  • 260° at 30 KTS
  • Gusting to 38 KTS
Visibility
Flight Rules
LIFR
Conditions
Snow, Freezing Fog
Cloud Levels
  • Vertical visibility
Temperature
-14°C / 7°F
Dewpoint
-14°C / 7°F
Humidity
100%
Altimeter
29.47" Hg
Pressure
998.02 hPa
Current Rain
0.01"